sensor_id;sensor_type;location;lat;lon;timestamp;P1;durP1;ratioP1;P2;durP2;ratioP2
8293;SDS011;4185;41.506;24.938;2022-09-03T00:00:41;9.67;;;6.50;;
8293;SDS011;4185;41.506;24.938;2022-09-03T00:03:16;9.33;;;6.57;;
8293;SDS011;4185;41.506;24.938;2022-09-03T00:05:46;8.50;;;7.00;;
8293;SDS011;4185;41.506;24.938;2022-09-03T00:08:18;9.90;;;6.50;;
8293;SDS011;4185;41.506;24.938;2022-09-03T00:10:55;8.73;;;6.63;;
8293;SDS011;4185;41.506;24.938;2022-09-03T00:13:26;12.30;;;6.37;;
8293;SDS011;4185;41.506;24.938;2022-09-03T00:15:59;6.80;;;5.93;;
8293;SDS011;4185;41.506;24.938;2022-09-03T00:18:36;7.67;;;6.20;;
8293;SDS011;4185;41.506;24.938;2022-09-03T00:21:09;9.40;;;6.53;;
8293;SDS011;4185;41.506;24.938;2022-09-03T00:23:39;9.10;;;6.57;;
8293;SDS011;4185;41.506;24.938;2022-09-03T00:26:15;7.23;;;6.20;;
8293;SDS011;4185;41.506;24.938;2022-09-03T00:28:50;7.57;;;6.67;;
8293;SDS011;4185;41.506;24.938;2022-09-03T00:31:29;7.37;;;5.67;;
8293;SDS011;4185;41.506;24.938;2022-09-03T00:34:01;7.60;;;5.70;;
8293;SDS011;4185;41.506;24.938;2022-09-03T00:36:34;8.20;;;6.47;;
8293;SDS011;4185;41.506;24.938;2022-09-03T00:39:07;8.80;;;6.30;;
8293;SDS011;4185;41.506;24.938;2022-09-03T00:41:36;6.87;;;5.87;;
8293;SDS011;4185;41.506;24.938;2022-09-03T00:44:15;10.87;;;6.50;;
8293;SDS011;4185;41.506;24.938;2022-09-03T00:47:01;7.53;;;5.80;;
8293;SDS011;4185;41.506;24.938;2022-09-03T00:49:39;7.03;;;6.17;;
8293;SDS011;4185;41.506;24.938;2022-09-03T00:52:18;7.03;;;6.03;;
8293;SDS011;4185;41.506;24.938;2022-09-03T00:54:57;6.97;;;5.83;;
8293;SDS011;4185;41.506;24.938;2022-09-03T00:57:34;7.40;;;5.90;;
8293;SDS011;4185;41.506;24.938;2022-09-03T01:00:11;7.93;;;5.93;;
8293;SDS011;4185;41.506;24.938;2022-09-03T01:02:45;7.60;;;5.80;;
8293;SDS011;4185;41.506;24.938;2022-09-03T01:05:20;7.20;;;5.80;;
8293;SDS011;4185;41.506;24.938;2022-09-03T01:08:03;7.40;;;5.93;;
8293;SDS011;4185;41.506;24.938;2022-09-03T01:10:42;7.33;;;5.17;;
8293;SDS011;4185;41.506;24.938;2022-09-03T01:13:19;8.53;;;5.90;;
8293;SDS011;4185;41.506;24.938;2022-09-03T01:15:51;8.27;;;6.23;;
8293;SDS011;4185;41.506;24.938;2022-09-03T01:18:32;8.17;;;5.90;;
8293;SDS011;4185;41.506;24.938;2022-09-03T01:21:13;8.90;;;5.97;;
8293;SDS011;4185;41.506;24.938;2022-09-03T01:24:11;6.47;;;5.80;;
8293;SDS011;4185;41.506;24.938;2022-09-03T01:27:05;7.50;;;5.50;;
8293;SDS011;4185;41.506;24.938;2022-09-03T01:29:47;7.00;;;5.87;;
8293;SDS011;4185;41.506;24.938;2022-09-03T01:32:21;7.03;;;5.67;;
8293;SDS011;4185;41.506;24.938;2022-09-03T01:34:56;7.33;;;5.73;;
8293;SDS011;4185;41.506;24.938;2022-09-03T01:37:30;6.50;;;5.73;;
8293;SDS011;4185;41.506;24.938;2022-09-03T01:40:06;11.53;;;6.17;;
8293;SDS011;4185;41.506;24.938;2022-09-03T01:42:41;8.73;;;5.67;;
8293;SDS011;4185;41.506;24.938;2022-09-03T01:45:24;7.13;;;6.43;;
8293;SDS011;4185;41.506;24.938;2022-09-03T01:48:13;8.10;;;6.47;;
8293;SDS011;4185;41.506;24.938;2022-09-03T01:50:55;7.63;;;5.97;;
8293;SDS011;4185;41.506;24.938;2022-09-03T01:53:37;7.70;;;6.37;;
8293;SDS011;4185;41.506;24.938;2022-09-03T01:56:21;8.03;;;6.27;;
8293;SDS011;4185;41.506;24.938;2022-09-03T01:59:00;8.33;;;6.13;;
8293;SDS011;4185;41.506;24.938;2022-09-03T02:01:33;7.87;;;6.17;;
8293;SDS011;4185;41.506;24.938;2022-09-03T02:04:13;7.83;;;6.37;;
8293;SDS011;4185;41.506;24.938;2022-09-03T02:06:44;8.33;;;6.90;;
8293;SDS011;4185;41.506;24.938;2022-09-03T02:09:13;9.83;;;6.40;;
8293;SDS011;4185;41.506;24.938;2022-09-03T02:11:40;8.20;;;6.80;;
8293;SDS011;4185;41.506;24.938;2022-09-03T02:14:09;8.27;;;6.63;;
8293;SDS011;4185;41.506;24.938;2022-09-03T02:16:37;10.60;;;7.27;;
8293;SDS011;4185;41.506;24.938;2022-09-03T02:19:04;8.80;;;6.83;;
8293;SDS011;4185;41.506;24.938;2022-09-03T02:21:37;8.93;;;7.40;;
8293;SDS011;4185;41.506;24.938;2022-09-03T02:24:06;12.03;;;7.07;;
8293;SDS011;4185;41.506;24.938;2022-09-03T02:26:34;8.53;;;6.73;;
8293;SDS011;4185;41.506;24.938;2022-09-03T02:29:02;9.40;;;7.57;;
8293;SDS011;4185;41.506;24.938;2022-09-03T02:31:29;9.10;;;7.07;;
8293;SDS011;4185;41.506;24.938;2022-09-03T02:33:58;13.97;;;7.83;;
8293;SDS011;4185;41.506;24.938;2022-09-03T02:36:26;8.73;;;7.13;;
8293;SDS011;4185;41.506;24.938;2022-09-03T02:38:55;13.10;;;7.47;;
8293;SDS011;4185;41.506;24.938;2022-09-03T02:41:22;10.97;;;7.57;;
8293;SDS011;4185;41.506;24.938;2022-09-03T02:43:53;12.70;;;8.20;;
8293;SDS011;4185;41.506;24.938;2022-09-03T02:46:26;15.07;;;8.07;;
8293;SDS011;4185;41.506;24.938;2022-09-03T02:48:59;10.37;;;7.97;;
8293;SDS011;4185;41.506;24.938;2022-09-03T02:51:30;12.10;;;8.50;;
8293;SDS011;4185;41.506;24.938;2022-09-03T02:53:59;12.27;;;8.73;;
8293;SDS011;4185;41.506;24.938;2022-09-03T02:56:26;11.43;;;8.00;;
8293;SDS011;4185;41.506;24.938;2022-09-03T02:58:53;11.80;;;8.67;;
8293;SDS011;4185;41.506;24.938;2022-09-03T03:01:20;13.03;;;9.00;;
8293;SDS011;4185;41.506;24.938;2022-09-03T03:03:47;10.70;;;8.10;;
8293;SDS011;4185;41.506;24.938;2022-09-03T03:06:15;13.20;;;8.33;;
8293;SDS011;4185;41.506;24.938;2022-09-03T03:08:45;11.97;;;8.23;;
8293;SDS011;4185;41.506;24.938;2022-09-03T03:11:12;12.70;;;7.97;;
8293;SDS011;4185;41.506;24.938;2022-09-03T03:13:40;12.30;;;8.27;;
8293;SDS011;4185;41.506;24.938;2022-09-03T03:16:06;11.93;;;7.93;;
8293;SDS011;4185;41.506;24.938;2022-09-03T03:18:33;14.63;;;8.70;;
8293;SDS011;4185;41.506;24.938;2022-09-03T03:21:03;12.40;;;8.43;;
8293;SDS011;4185;41.506;24.938;2022-09-03T03:23:33;10.17;;;8.00;;
8293;SDS011;4185;41.506;24.938;2022-09-03T03:26:01;13.50;;;9.13;;
8293;SDS011;4185;41.506;24.938;2022-09-03T03:28:29;12.93;;;8.60;;
8293;SDS011;4185;41.506;24.938;2022-09-03T03:30:58;14.40;;;8.50;;
8293;SDS011;4185;41.506;24.938;2022-09-03T03:33:30;9.93;;;8.07;;
8293;SDS011;4185;41.506;24.938;2022-09-03T03:35:57;11.37;;;8.00;;
8293;SDS011;4185;41.506;24.938;2022-09-03T03:38:24;11.67;;;8.93;;
8293;SDS011;4185;41.506;24.938;2022-09-03T03:40:52;13.40;;;8.87;;
8293;SDS011;4185;41.506;24.938;2022-09-03T03:43:19;16.73;;;10.20;;
8293;SDS011;4185;41.506;24.938;2022-09-03T03:45:55;18.40;;;10.20;;
8293;SDS011;4185;41.506;24.938;2022-09-03T03:48:22;15.97;;;8.93;;
8293;SDS011;4185;41.506;24.938;2022-09-03T03:50:49;14.90;;;9.37;;
8293;SDS011;4185;41.506;24.938;2022-09-03T03:53:16;15.87;;;9.47;;
8293;SDS011;4185;41.506;24.938;2022-09-03T03:55:43;17.10;;;9.27;;
8293;SDS011;4185;41.506;24.938;2022-09-03T03:58:21;11.13;;;8.43;;
8293;SDS011;4185;41.506;24.938;2022-09-03T04:00:49;14.70;;;9.43;;
8293;SDS011;4185;41.506;24.938;2022-09-03T04:03:15;12.77;;;9.37;;
8293;SDS011;4185;41.506;24.938;2022-09-03T04:05:43;17.87;;;9.73;;
8293;SDS011;4185;41.506;24.938;2022-09-03T04:08:19;12.03;;;8.43;;
8293;SDS011;4185;41.506;24.938;2022-09-03T04:10:46;12.13;;;8.00;;
8293;SDS011;4185;41.506;24.938;2022-09-03T04:13:14;9.43;;;7.07;;
8293;SDS011;4185;41.506;24.938;2022-09-03T04:15:41;9.90;;;7.43;;
8293;SDS011;4185;41.506;24.938;2022-09-03T04:18:08;10.50;;;7.90;;
8293;SDS011;4185;41.506;24.938;2022-09-03T04:20:35;9.03;;;7.00;;
8293;SDS011;4185;41.506;24.938;2022-09-03T04:23:02;8.30;;;6.43;;
8293;SDS011;4185;41.506;24.938;2022-09-03T04:25:30;10.37;;;7.37;;
8293;SDS011;4185;41.506;24.938;2022-09-03T04:27:57;9.87;;;7.23;;
8293;SDS011;4185;41.506;24.938;2022-09-03T04:30:26;8.37;;;6.77;;
8293;SDS011;4185;41.506;24.938;2022-09-03T04:32:52;8.93;;;7.07;;
8293;SDS011;4185;41.506;24.938;2022-09-03T04:35:20;8.63;;;6.97;;
8293;SDS011;4185;41.506;24.938;2022-09-03T04:37:47;12.30;;;6.93;;
8293;SDS011;4185;41.506;24.938;2022-09-03T04:40:14;8.90;;;6.77;;
8293;SDS011;4185;41.506;24.938;2022-09-03T04:42:42;7.90;;;6.53;;
8293;SDS011;4185;41.506;24.938;2022-09-03T04:45:09;9.93;;;6.93;;
8293;SDS011;4185;41.506;24.938;2022-09-03T04:47:37;9.13;;;5.90;;
8293;SDS011;4185;41.506;24.938;2022-09-03T04:50:05;6.87;;;6.10;;
8293;SDS011;4185;41.506;24.938;2022-09-03T04:52:32;8.90;;;6.03;;
8293;SDS011;4185;41.506;24.938;2022-09-03T04:54:59;6.90;;;6.20;;
8293;SDS011;4185;41.506;24.938;2022-09-03T04:57:26;6.83;;;5.77;;
8293;SDS011;4185;41.506;24.938;2022-09-03T04:59:58;6.93;;;6.00;;
8293;SDS011;4185;41.506;24.938;2022-09-03T05:02:25;7.83;;;6.57;;
8293;SDS011;4185;41.506;24.938;2022-09-03T05:04:53;7.30;;;6.50;;
8293;SDS011;4185;41.506;24.938;2022-09-03T05:07:20;7.57;;;6.20;;
8293;SDS011;4185;41.506;24.938;2022-09-03T05:09:47;8.37;;;6.77;;
8293;SDS011;4185;41.506;24.938;2022-09-03T05:12:14;9.17;;;6.47;;
8293;SDS011;4185;41.506;24.938;2022-09-03T05:14:42;8.97;;;6.20;;
8293;SDS011;4185;41.506;24.938;2022-09-03T05:17:08;7.13;;;6.07;;
8293;SDS011;4185;41.506;24.938;2022-09-03T05:19:35;6.90;;;5.97;;
8293;SDS011;4185;41.506;24.938;2022-09-03T05:22:03;7.70;;;6.20;;
8293;SDS011;4185;41.506;24.938;2022-09-03T05:24:32;7.77;;;6.23;;
8293;SDS011;4185;41.506;24.938;2022-09-03T05:26:58;7.80;;;6.03;;
8293;SDS011;4185;41.506;24.938;2022-09-03T05:29:26;7.00;;;5.83;;
8293;SDS011;4185;41.506;24.938;2022-09-03T05:31:53;6.80;;;5.50;;
8293;SDS011;4185;41.506;24.938;2022-09-03T05:34:19;7.10;;;5.50;;
8293;SDS011;4185;41.506;24.938;2022-09-03T05:36:46;6.73;;;6.03;;
8293;SDS011;4185;41.506;24.938;2022-09-03T05:39:15;6.17;;;5.57;;
8293;SDS011;4185;41.506;24.938;2022-09-03T05:41:42;7.50;;;6.17;;
8293;SDS011;4185;41.506;24.938;2022-09-03T05:44:09;7.13;;;6.00;;
8293;SDS011;4185;41.506;24.938;2022-09-03T05:46:35;7.53;;;6.00;;
8293;SDS011;4185;41.506;24.938;2022-09-03T05:49:03;6.50;;;5.87;;
8293;SDS011;4185;41.506;24.938;2022-09-03T05:51:31;7.33;;;6.13;;
8293;SDS011;4185;41.506;24.938;2022-09-03T05:53:59;7.87;;;5.50;;
8293;SDS011;4185;41.506;24.938;2022-09-03T05:56:28;8.00;;;6.23;;
8293;SDS011;4185;41.506;24.938;2022-09-03T05:58:57;8.53;;;6.10;;
8293;SDS011;4185;41.506;24.938;2022-09-03T06:01:26;8.43;;;6.43;;
8293;SDS011;4185;41.506;24.938;2022-09-03T06:03:54;7.87;;;6.27;;
8293;SDS011;4185;41.506;24.938;2022-09-03T06:06:23;8.53;;;6.97;;
8293;SDS011;4185;41.506;24.938;2022-09-03T06:08:51;9.90;;;7.20;;
8293;SDS011;4185;41.506;24.938;2022-09-03T06:11:19;9.10;;;6.73;;
8293;SDS011;4185;41.506;24.938;2022-09-03T06:13:48;9.80;;;6.73;;
8293;SDS011;4185;41.506;24.938;2022-09-03T06:16:15;8.67;;;7.43;;
8293;SDS011;4185;41.506;24.938;2022-09-03T06:18:42;7.97;;;6.80;;
8293;SDS011;4185;41.506;24.938;2022-09-03T06:21:09;9.80;;;7.60;;
8293;SDS011;4185;41.506;24.938;2022-09-03T06:23:36;9.97;;;7.47;;
8293;SDS011;4185;41.506;24.938;2022-09-03T06:26:03;9.90;;;7.10;;
8293;SDS011;4185;41.506;24.938;2022-09-03T06:28:32;9.13;;;7.03;;
8293;SDS011;4185;41.506;24.938;2022-09-03T06:31:01;7.83;;;6.60;;
8293;SDS011;4185;41.506;24.938;2022-09-03T06:33:30;9.90;;;7.33;;
8293;SDS011;4185;41.506;24.938;2022-09-03T06:35:58;8.63;;;7.17;;
8293;SDS011;4185;41.506;24.938;2022-09-03T06:38:27;10.20;;;7.20;;
8293;SDS011;4185;41.506;24.938;2022-09-03T06:40:56;8.10;;;7.30;;
8293;SDS011;4185;41.506;24.938;2022-09-03T06:43:26;8.17;;;6.43;;
8293;SDS011;4185;41.506;24.938;2022-09-03T06:45:55;9.27;;;7.07;;
8293;SDS011;4185;41.506;24.938;2022-09-03T06:48:24;9.50;;;7.40;;
8293;SDS011;4185;41.506;24.938;2022-09-03T06:50:54;8.90;;;6.80;;
8293;SDS011;4185;41.506;24.938;2022-09-03T06:53:23;9.27;;;7.77;;
8293;SDS011;4185;41.506;24.938;2022-09-03T06:55:52;8.67;;;7.40;;
8293;SDS011;4185;41.506;24.938;2022-09-03T06:58:20;8.37;;;7.37;;
8293;SDS011;4185;41.506;24.938;2022-09-03T07:00:47;7.73;;;6.60;;
8293;SDS011;4185;41.506;24.938;2022-09-03T07:03:17;8.30;;;6.57;;
8293;SDS011;4185;41.506;24.938;2022-09-03T07:05:45;8.80;;;7.10;;
8293;SDS011;4185;41.506;24.938;2022-09-03T07:08:12;9.17;;;7.73;;
8293;SDS011;4185;41.506;24.938;2022-09-03T07:10:40;8.03;;;7.23;;
8293;SDS011;4185;41.506;24.938;2022-09-03T07:13:11;8.87;;;6.83;;
8293;SDS011;4185;41.506;24.938;2022-09-03T07:15:38;8.13;;;7.27;;
8293;SDS011;4185;41.506;24.938;2022-09-03T07:18:06;8.00;;;7.07;;
8293;SDS011;4185;41.506;24.938;2022-09-03T07:20:33;8.00;;;7.20;;
8293;SDS011;4185;41.506;24.938;2022-09-03T07:23:01;7.30;;;6.20;;
8293;SDS011;4185;41.506;24.938;2022-09-03T07:25:28;7.47;;;6.67;;
8293;SDS011;4185;41.506;24.938;2022-09-03T07:27:55;8.40;;;7.03;;
8293;SDS011;4185;41.506;24.938;2022-09-03T07:30:22;8.83;;;7.47;;
8293;SDS011;4185;41.506;24.938;2022-09-03T07:32:50;7.30;;;6.50;;
8293;SDS011;4185;41.506;24.938;2022-09-03T07:35:18;9.00;;;6.47;;
8293;SDS011;4185;41.506;24.938;2022-09-03T07:37:45;7.73;;;6.93;;
8293;SDS011;4185;41.506;24.938;2022-09-03T07:40:13;8.33;;;6.60;;
8293;SDS011;4185;41.506;24.938;2022-09-03T07:42:43;8.57;;;6.47;;
8293;SDS011;4185;41.506;24.938;2022-09-03T07:45:12;8.47;;;6.90;;
8293;SDS011;4185;41.506;24.938;2022-09-03T07:47:44;9.70;;;7.03;;
8293;SDS011;4185;41.506;24.938;2022-09-03T07:50:12;7.70;;;6.73;;
8293;SDS011;4185;41.506;24.938;2022-09-03T07:52:40;10.70;;;6.73;;
8293;SDS011;4185;41.506;24.938;2022-09-03T07:55:07;8.53;;;7.63;;
8293;SDS011;4185;41.506;24.938;2022-09-03T07:57:36;8.43;;;7.00;;
8293;SDS011;4185;41.506;24.938;2022-09-03T08:00:04;7.13;;;6.50;;
8293;SDS011;4185;41.506;24.938;2022-09-03T08:02:32;9.33;;;7.30;;
8293;SDS011;4185;41.506;24.938;2022-09-03T08:04:59;6.90;;;6.20;;
8293;SDS011;4185;41.506;24.938;2022-09-03T08:07:27;7.90;;;6.80;;
8293;SDS011;4185;41.506;24.938;2022-09-03T08:09:54;7.27;;;6.53;;
8293;SDS011;4185;41.506;24.938;2022-09-03T08:12:21;8.97;;;6.83;;
8293;SDS011;4185;41.506;24.938;2022-09-03T08:14:49;6.80;;;6.10;;
8293;SDS011;4185;41.506;24.938;2022-09-03T08:17:16;6.57;;;5.97;;
8293;SDS011;4185;41.506;24.938;2022-09-03T08:19:43;8.43;;;6.83;;
8293;SDS011;4185;41.506;24.938;2022-09-03T08:22:11;8.17;;;6.33;;
8293;SDS011;4185;41.506;24.938;2022-09-03T08:24:38;7.37;;;6.67;;
8293;SDS011;4185;41.506;24.938;2022-09-03T08:27:06;6.93;;;6.23;;
8293;SDS011;4185;41.506;24.938;2022-09-03T08:29:33;9.97;;;6.40;;
8293;SDS011;4185;41.506;24.938;2022-09-03T08:32:01;8.40;;;6.07;;
8293;SDS011;4185;41.506;24.938;2022-09-03T08:34:29;9.20;;;6.87;;
8293;SDS011;4185;41.506;24.938;2022-09-03T08:36:56;8.83;;;6.33;;
8293;SDS011;4185;41.506;24.938;2022-09-03T08:39:25;7.87;;;6.57;;
8293;SDS011;4185;41.506;24.938;2022-09-03T08:44:58;7.07;;;6.37;;
8293;SDS011;4185;41.506;24.938;2022-09-03T08:47:31;10.10;;;5.93;;
8293;SDS011;4185;41.506;24.938;2022-09-03T08:50:03;6.50;;;5.80;;
8293;SDS011;4185;41.506;24.938;2022-09-03T08:52:37;8.00;;;6.47;;
8293;SDS011;4185;41.506;24.938;2022-09-03T08:55:17;6.97;;;5.93;;
8293;SDS011;4185;41.506;24.938;2022-09-03T08:57:52;6.90;;;6.20;;
8293;SDS011;4185;41.506;24.938;2022-09-03T09:00:23;8.57;;;6.07;;
8293;SDS011;4185;41.506;24.938;2022-09-03T09:02:57;6.13;;;5.53;;
8293;SDS011;4185;41.506;24.938;2022-09-03T09:05:42;7.63;;;5.90;;
8293;SDS011;4185;41.506;24.938;2022-09-03T09:08:15;7.67;;;5.70;;
8293;SDS011;4185;41.506;24.938;2022-09-03T09:10:46;6.73;;;6.07;;
8293;SDS011;4185;41.506;24.938;2022-09-03T09:13:22;7.90;;;6.30;;
8293;SDS011;4185;41.506;24.938;2022-09-03T09:15:56;6.80;;;5.33;;
8293;SDS011;4185;41.506;24.938;2022-09-03T09:18:38;7.40;;;5.23;;
8293;SDS011;4185;41.506;24.938;2022-09-03T09:21:17;6.97;;;5.70;;
8293;SDS011;4185;41.506;24.938;2022-09-03T09:23:49;10.57;;;5.87;;
8293;SDS011;4185;41.506;24.938;2022-09-03T09:26:19;6.60;;;5.70;;
8293;SDS011;4185;41.506;24.938;2022-09-03T09:28:49;6.70;;;5.83;;
8293;SDS011;4185;41.506;24.938;2022-09-03T09:31:22;6.90;;;5.33;;
8293;SDS011;4185;41.506;24.938;2022-09-03T09:33:51;6.30;;;5.13;;
8293;SDS011;4185;41.506;24.938;2022-09-03T09:36:18;7.40;;;5.90;;
8293;SDS011;4185;41.506;24.938;2022-09-03T09:38:47;7.20;;;6.00;;
8293;SDS011;4185;41.506;24.938;2022-09-03T09:41:14;7.57;;;5.63;;
8293;SDS011;4185;41.506;24.938;2022-09-03T09:43:43;5.57;;;4.83;;
8293;SDS011;4185;41.506;24.938;2022-09-03T09:46:12;7.87;;;6.30;;
8293;SDS011;4185;41.506;24.938;2022-09-03T09:48:45;8.07;;;6.30;;
8293;SDS011;4185;41.506;24.938;2022-09-03T09:51:18;7.37;;;5.50;;
8293;SDS011;4185;41.506;24.938;2022-09-03T09:53:47;7.43;;;6.20;;
8293;SDS011;4185;41.506;24.938;2022-09-03T09:56:25;6.20;;;5.60;;
8293;SDS011;4185;41.506;24.938;2022-09-03T09:59:00;5.75;;;5.13;;
8293;SDS011;4185;41.506;24.938;2022-09-03T10:01:28;6.32;;;5.30;;
8293;SDS011;4185;41.506;24.938;2022-09-03T10:03:56;7.47;;;5.75;;
8293;SDS011;4185;41.506;24.938;2022-09-03T10:06:27;7.05;;;5.43;;
8293;SDS011;4185;41.506;24.938;2022-09-03T10:09:14;6.30;;;5.68;;
8293;SDS011;4185;41.506;24.938;2022-09-03T10:11:43;7.50;;;5.60;;
8293;SDS011;4185;41.506;24.938;2022-09-03T10:14:16;9.27;;;6.57;;
8293;SDS011;4185;41.506;24.938;2022-09-03T10:16:49;7.07;;;6.38;;
8293;SDS011;4185;41.506;24.938;2022-09-03T10:19:28;8.52;;;7.32;;
8293;SDS011;4185;41.506;24.938;2022-09-03T10:22:06;7.78;;;6.30;;
8293;SDS011;4185;41.506;24.938;2022-09-03T10:24:40;7.55;;;6.68;;
8293;SDS011;4185;41.506;24.938;2022-09-03T10:27:18;7.75;;;7.05;;
8293;SDS011;4185;41.506;24.938;2022-09-03T10:29:46;9.45;;;5.88;;
8293;SDS011;4185;41.506;24.938;2022-09-03T10:32:19;6.97;;;6.18;;
8293;SDS011;4185;41.506;24.938;2022-09-03T10:34:57;7.93;;;7.03;;
8293;SDS011;4185;41.506;24.938;2022-09-03T10:37:36;9.63;;;6.72;;
8293;SDS011;4185;41.506;24.938;2022-09-03T10:40:10;9.00;;;6.80;;
8293;SDS011;4185;41.506;24.938;2022-09-03T10:42:50;7.72;;;6.93;;
8293;SDS011;4185;41.506;24.938;2022-09-03T10:45:28;7.57;;;6.78;;
8293;SDS011;4185;41.506;24.938;2022-09-03T10:48:12;8.45;;;7.00;;
8293;SDS011;4185;41.506;24.938;2022-09-03T10:50:51;8.05;;;7.25;;
8293;SDS011;4185;41.506;24.938;2022-09-03T10:53:29;7.97;;;6.35;;
8293;SDS011;4185;41.506;24.938;2022-09-03T10:56:15;7.07;;;6.38;;
8293;SDS011;4185;41.506;24.938;2022-09-03T10:58:53;10.30;;;7.38;;
8293;SDS011;4185;41.506;24.938;2022-09-03T11:01:34;8.20;;;7.22;;
8293;SDS011;4185;41.506;24.938;2022-09-03T11:04:19;8.40;;;7.15;;
8293;SDS011;4185;41.506;24.938;2022-09-03T11:06:53;9.23;;;7.63;;
8293;SDS011;4185;41.506;24.938;2022-09-03T11:09:25;7.47;;;6.47;;
8293;SDS011;4185;41.506;24.938;2022-09-03T11:11:59;12.85;;;8.40;;
8293;SDS011;4185;41.506;24.938;2022-09-03T11:14:32;11.45;;;9.00;;
8293;SDS011;4185;41.506;24.938;2022-09-03T11:17:04;9.45;;;7.68;;
8293;SDS011;4185;41.506;24.938;2022-09-03T11:19:36;8.32;;;7.28;;
8293;SDS011;4185;41.506;24.938;2022-09-03T11:22:11;11.55;;;8.63;;
8293;SDS011;4185;41.506;24.938;2022-09-03T11:24:43;8.40;;;6.90;;
8293;SDS011;4185;41.506;24.938;2022-09-03T11:27:18;8.55;;;7.65;;
8293;SDS011;4185;41.506;24.938;2022-09-03T11:29:52;9.10;;;6.47;;
8293;SDS011;4185;41.506;24.938;2022-09-03T11:32:27;8.77;;;7.18;;
8293;SDS011;4185;41.506;24.938;2022-09-03T11:34:59;8.13;;;7.32;;
8293;SDS011;4185;41.506;24.938;2022-09-03T11:37:26;11.07;;;6.95;;
8293;SDS011;4185;41.506;24.938;2022-09-03T11:39:57;9.85;;;6.63;;
8293;SDS011;4185;41.506;24.938;2022-09-03T11:42:30;9.38;;;6.18;;
8293;SDS011;4185;41.506;24.938;2022-09-03T11:45:20;7.90;;;6.72;;
8293;SDS011;4185;41.506;24.938;2022-09-03T11:47:49;8.10;;;6.13;;
8293;SDS011;4185;41.506;24.938;2022-09-03T11:50:19;9.55;;;7.25;;
8293;SDS011;4185;41.506;24.938;2022-09-03T11:52:47;10.73;;;6.85;;
8293;SDS011;4185;41.506;24.938;2022-09-03T11:55:29;8.30;;;7.28;;
8293;SDS011;4185;41.506;24.938;2022-09-03T11:57:58;10.20;;;7.38;;
8293;SDS011;4185;41.506;24.938;2022-09-03T12:00:37;8.25;;;7.45;;
8293;SDS011;4185;41.506;24.938;2022-09-03T12:03:11;8.60;;;6.55;;
8293;SDS011;4185;41.506;24.938;2022-09-03T12:05:41;7.70;;;6.90;;
8293;SDS011;4185;41.506;24.938;2022-09-03T12:08:19;7.15;;;6.45;;
8293;SDS011;4185;41.506;24.938;2022-09-03T12:11:08;9.20;;;6.55;;
8293;SDS011;4185;41.506;24.938;2022-09-03T12:13:52;9.27;;;6.70;;
8293;SDS011;4185;41.506;24.938;2022-09-03T12:16:31;7.50;;;6.65;;
8293;SDS011;4185;41.506;24.938;2022-09-03T12:19:14;10.63;;;6.55;;
8293;SDS011;4185;41.506;24.938;2022-09-03T12:21:47;9.48;;;7.45;;
8293;SDS011;4185;41.506;24.938;2022-09-03T12:24:14;8.50;;;7.57;;
8293;SDS011;4185;41.506;24.938;2022-09-03T12:26:44;9.40;;;6.95;;
8293;SDS011;4185;41.506;24.938;2022-09-03T12:29:21;7.90;;;7.10;;
8293;SDS011;4185;41.506;24.938;2022-09-03T12:31:49;8.20;;;7.13;;
8293;SDS011;4185;41.506;24.938;2022-09-03T12:34:17;8.13;;;7.13;;
8293;SDS011;4185;41.506;24.938;2022-09-03T12:36:46;8.88;;;7.40;;
8293;SDS011;4185;41.506;24.938;2022-09-03T12:39:16;9.32;;;7.38;;
8293;SDS011;4185;41.506;24.938;2022-09-03T12:41:53;9.07;;;8.15;;
8293;SDS011;4185;41.506;24.938;2022-09-03T12:44:25;9.60;;;7.88;;
8293;SDS011;4185;41.506;24.938;2022-09-03T12:47:00;8.68;;;7.78;;
8293;SDS011;4185;41.506;24.938;2022-09-03T12:49:33;8.20;;;7.40;;
8293;SDS011;4185;41.506;24.938;2022-09-03T12:52:05;9.23;;;7.75;;
8293;SDS011;4185;41.506;24.938;2022-09-03T12:54:42;8.07;;;7.28;;
8293;SDS011;4185;41.506;24.938;2022-09-03T12:57:18;8.20;;;7.38;;
8293;SDS011;4185;41.506;24.938;2022-09-03T12:59:48;9.43;;;7.30;;
8293;SDS011;4185;41.506;24.938;2022-09-03T13:02:21;8.38;;;6.78;;
8293;SDS011;4185;41.506;24.938;2022-09-03T13:04:52;7.53;;;6.83;;
8293;SDS011;4185;41.506;24.938;2022-09-03T13:07:21;7.60;;;6.43;;
8293;SDS011;4185;41.506;24.938;2022-09-03T13:09:54;8.43;;;6.67;;
8293;SDS011;4185;41.506;24.938;2022-09-03T13:12:30;7.50;;;6.53;;
8293;SDS011;4185;41.506;24.938;2022-09-03T13:15:04;8.07;;;7.28;;
8293;SDS011;4185;41.506;24.938;2022-09-03T13:20:32;8.15;;;7.35;;
8293;SDS011;4185;41.506;24.938;2022-09-03T13:23:09;7.85;;;6.53;;
8293;SDS011;4185;41.506;24.938;2022-09-03T13:26:00;8.52;;;7.50;;
8293;SDS011;4185;41.506;24.938;2022-09-03T13:28:42;7.70;;;6.47;;
8293;SDS011;4185;41.506;24.938;2022-09-03T13:31:25;8.00;;;7.20;;
8293;SDS011;4185;41.506;24.938;2022-09-03T13:33:58;7.88;;;7.07;;
8293;SDS011;4185;41.506;24.938;2022-09-03T13:36:33;8.40;;;7.55;;
8293;SDS011;4185;41.506;24.938;2022-09-03T13:39:09;8.20;;;7.18;;
8293;SDS011;4185;41.506;24.938;2022-09-03T13:41:47;9.63;;;8.15;;
8293;SDS011;4185;41.506;24.938;2022-09-03T13:44:19;10.32;;;9.25;;
8293;SDS011;4185;41.506;24.938;2022-09-03T13:47:04;10.57;;;8.88;;
8293;SDS011;4185;41.506;24.938;2022-09-03T13:49:36;11.82;;;9.48;;
8293;SDS011;4185;41.506;24.938;2022-09-03T13:52:24;11.23;;;8.73;;
8293;SDS011;4185;41.506;24.938;2022-09-03T13:54:56;9.45;;;8.25;;
8293;SDS011;4185;41.506;24.938;2022-09-03T13:57:29;9.68;;;8.40;;
8293;SDS011;4185;41.506;24.938;2022-09-03T14:00:05;10.45;;;8.68;;
8293;SDS011;4185;41.506;24.938;2022-09-03T14:02:43;10.52;;;8.30;;
8293;SDS011;4185;41.506;24.938;2022-09-03T14:05:16;10.05;;;8.18;;
8293;SDS011;4185;41.506;24.938;2022-09-03T14:08:00;9.98;;;8.02;;
8293;SDS011;4185;41.506;24.938;2022-09-03T14:10:49;10.32;;;8.00;;
8293;SDS011;4185;41.506;24.938;2022-09-03T14:13:23;10.32;;;8.93;;
8293;SDS011;4185;41.506;24.938;2022-09-03T14:16:05;10.03;;;8.90;;
8293;SDS011;4185;41.506;24.938;2022-09-03T14:18:41;9.60;;;8.70;;
8293;SDS011;4185;41.506;24.938;2022-09-03T14:21:17;9.00;;;7.82;;
8293;SDS011;4185;41.506;24.938;2022-09-03T14:23:50;10.60;;;8.47;;
8293;SDS011;4185;41.506;24.938;2022-09-03T14:26:27;9.10;;;8.13;;
8293;SDS011;4185;41.506;24.938;2022-09-03T14:28:57;9.23;;;7.60;;
8293;SDS011;4185;41.506;24.938;2022-09-03T14:31:29;9.00;;;7.87;;
8293;SDS011;4185;41.506;24.938;2022-09-03T14:34:17;10.53;;;9.03;;
8293;SDS011;4185;41.506;24.938;2022-09-03T14:36:53;10.63;;;8.97;;
8293;SDS011;4185;41.506;24.938;2022-09-03T14:39:28;10.50;;;9.17;;
8293;SDS011;4185;41.506;24.938;2022-09-03T14:45:09;10.07;;;8.70;;
8293;SDS011;4185;41.506;24.938;2022-09-03T14:48:03;9.23;;;8.07;;
8293;SDS011;4185;41.506;24.938;2022-09-03T14:50:42;10.87;;;8.73;;
8293;SDS011;4185;41.506;24.938;2022-09-03T14:53:25;12.30;;;9.00;;
8293;SDS011;4185;41.506;24.938;2022-09-03T14:56:08;9.57;;;8.57;;
8293;SDS011;4185;41.506;24.938;2022-09-03T15:01:38;9.93;;;8.13;;
8293;SDS011;4185;41.506;24.938;2022-09-03T15:04:21;9.67;;;8.10;;
8293;SDS011;4185;41.506;24.938;2022-09-03T15:07:25;10.57;;;8.20;;
8293;SDS011;4185;41.506;24.938;2022-09-03T15:10:01;8.53;;;7.30;;
8293;SDS011;4185;41.506;24.938;2022-09-03T15:12:38;8.73;;;6.93;;
8293;SDS011;4185;41.506;24.938;2022-09-03T15:15:11;7.17;;;6.47;;
8293;SDS011;4185;41.506;24.938;2022-09-03T15:17:50;9.03;;;7.60;;
8293;SDS011;4185;41.506;24.938;2022-09-03T15:20:29;7.93;;;7.03;;
8293;SDS011;4185;41.506;24.938;2022-09-03T15:23:05;8.47;;;6.97;;
8293;SDS011;4185;41.506;24.938;2022-09-03T15:26:00;9.73;;;7.33;;
8293;SDS011;4185;41.506;24.938;2022-09-03T15:28:44;10.63;;;6.87;;
8293;SDS011;4185;41.506;24.938;2022-09-03T15:31:23;8.93;;;6.97;;
8293;SDS011;4185;41.506;24.938;2022-09-03T15:34:00;7.87;;;6.53;;
8293;SDS011;4185;41.506;24.938;2022-09-03T15:36:36;8.67;;;7.03;;
8293;SDS011;4185;41.506;24.938;2022-09-03T15:39:08;7.67;;;6.43;;
8293;SDS011;4185;41.506;24.938;2022-09-03T15:41:43;7.07;;;6.37;;